createdAt,value
2023-04-10T00:00:07.283Z,4.32
2023-04-10T00:01:09.437Z,4.24
2023-04-10T00:02:07.764Z,4.24
2023-04-10T00:03:08.276Z,4.25
2023-04-10T00:04:08.211Z,4.29
2023-04-10T00:05:08.359Z,4.16
2023-04-10T00:06:08.292Z,4.25
2023-04-10T00:07:08.486Z,4.19
2023-04-10T00:08:08.648Z,4.25
2023-04-10T00:09:08.810Z,4.18
2023-04-10T00:10:08.956Z,4.15
2023-04-10T00:11:09.799Z,4.15
2023-04-10T00:12:09.307Z,4.22
2023-04-10T00:13:10.468Z,4.26
2023-04-10T00:14:09.593Z,4.32
2023-04-10T00:15:09.772Z,4.33
2023-04-10T00:16:09.988Z,4.37
2023-04-10T00:17:10.158Z,4.51
2023-04-10T00:18:10.329Z,4.36
2023-04-10T00:19:10.468Z,4.44
2023-04-10T00:20:10.590Z,4.54
2023-04-10T00:21:11.785Z,4.44
2023-04-10T00:22:11.449Z,4.61
2023-04-10T00:23:11.129Z,4.69
2023-04-10T00:24:11.338Z,4.73
2023-04-10T00:25:12.427Z,4.70
2023-04-10T00:26:11.764Z,4.70
2023-04-10T00:27:14.436Z,4.83
2023-04-10T00:28:12.000Z,4.89
2023-04-10T00:29:12.257Z,4.88
2023-04-10T00:30:12.410Z,4.99
2023-04-10T00:31:14.429Z,5.01
2023-04-10T00:32:12.824Z,5.13
2023-04-10T00:33:13.437Z,5.22
2023-04-10T00:34:14.013Z,5.17
2023-04-10T00:35:13.336Z,5.25
2023-04-10T00:36:14.022Z,5.23
2023-04-10T00:37:13.674Z,5.23
2023-04-10T00:38:13.805Z,5.30
2023-04-10T00:39:14.004Z,5.38
2023-04-10T00:40:14.501Z,5.59
2023-04-10T00:41:14.939Z,5.67
2023-04-10T00:42:14.934Z,5.70
2023-04-10T00:43:14.596Z,5.81
2023-04-10T00:44:15.473Z,5.91
2023-04-10T00:45:14.958Z,6.04
2023-04-10T00:46:15.170Z,6.10
2023-04-10T00:47:15.291Z,6.06
2023-04-10T00:48:15.476Z,6.13
2023-04-10T00:49:16.476Z,6.13
2023-04-10T00:50:15.900Z,6.07
2023-04-10T00:51:16.086Z,6.16
2023-04-10T00:52:16.278Z,6.16
2023-04-10T00:53:17.468Z,6.30
2023-04-10T00:54:16.663Z,6.32
2023-04-10T00:55:16.869Z,6.33
2023-04-10T00:56:17.065Z,6.38
2023-04-10T00:57:18.009Z,6.43
2023-04-10T00:58:17.497Z,6.54
2023-04-10T00:59:17.559Z,6.43
2023-04-10T01:00:18.449Z,6.56
2023-04-10T01:01:17.982Z,6.65
2023-04-10T01:02:18.671Z,6.62
2023-04-10T01:03:18.466Z,6.66
2023-04-10T01:04:18.566Z,6.66
2023-04-10T01:05:18.659Z,6.66
2023-04-10T01:06:18.840Z,6.59
2023-04-10T01:07:19.080Z,6.56
2023-04-10T01:08:19.233Z,6.62
2023-04-10T01:09:19.408Z,6.66
2023-04-10T01:10:20.449Z,6.51
2023-04-10T01:11:20.512Z,6.53
2023-04-10T01:12:20.942Z,6.59
2023-04-10T01:13:20.088Z,6.63
2023-04-10T01:14:20.252Z,6.59
2023-04-10T01:15:20.441Z,6.54
2023-04-10T01:16:20.686Z,6.51
2023-04-10T01:17:20.796Z,6.65
2023-04-10T01:18:21.956Z,6.69
2023-04-10T01:19:21.100Z,6.83
2023-04-10T01:20:21.982Z,6.95
2023-04-10T01:21:21.987Z,6.87
2023-04-10T01:22:22.446Z,6.84
2023-04-10T01:23:22.825Z,6.91
2023-04-10T01:24:21.954Z,6.97
2023-04-10T01:25:22.137Z,7.01
2023-04-10T01:26:22.952Z,7.04
2023-04-10T01:27:23.005Z,7.07
2023-04-10T01:28:22.704Z,7.15
2023-04-10T01:29:22.879Z,7.13
2023-04-10T01:30:23.040Z,7.16
2023-04-10T01:31:23.292Z,7.19
2023-04-10T01:32:24.034Z,7.34
2023-04-10T01:33:23.528Z,7.37
2023-04-10T01:34:24.512Z,7.42
2023-04-10T01:35:23.929Z,7.53
2023-04-10T01:36:24.524Z,7.59
2023-04-10T01:37:25.951Z,7.58
2023-04-10T01:38:24.469Z,7.56
2023-04-10T01:39:25.487Z,7.69
2023-04-10T01:40:24.770Z,7.75
2023-04-10T01:41:24.979Z,7.79
2023-04-10T01:42:25.159Z,7.82
2023-04-10T01:43:26.951Z,7.87
2023-04-10T01:44:25.537Z,7.74
2023-04-10T01:45:25.707Z,7.87
2023-04-10T01:46:25.885Z,7.90
2023-04-10T01:47:26.101Z,7.87
2023-04-10T01:48:26.264Z,7.90
2023-04-10T01:49:27.967Z,7.90
2023-04-10T01:50:26.596Z,7.78
2023-04-10T01:51:26.741Z,7.72
2023-04-10T01:52:27.528Z,7.77
2023-04-10T01:53:27.034Z,7.69
2023-04-10T01:54:27.170Z,7.69
2023-04-10T01:55:27.960Z,7.62
2023-04-10T01:56:27.476Z,7.49
2023-04-10T01:57:27.671Z,7.35
2023-04-10T01:58:27.857Z,7.47
2023-04-10T01:59:28.004Z,7.52
2023-04-10T02:00:28.272Z,7.42
2023-04-10T02:01:30.253Z,7.50
2023-04-10T02:02:30.639Z,7.15
2023-04-10T02:03:30.682Z,7.17
2023-04-10T02:04:28.914Z,7.24
2023-04-10T02:05:29.984Z,7.17
2023-04-10T02:06:30.965Z,7.12
2023-04-10T02:07:29.230Z,7.24
2023-04-10T02:08:29.411Z,7.27
2023-04-10T02:09:29.611Z,7.35
2023-04-10T02:10:29.805Z,7.41
2023-04-10T02:11:30.009Z,7.35
2023-04-10T02:12:30.156Z,7.41
2023-04-10T02:13:31.014Z,7.42
2023-04-10T02:14:30.565Z,7.40
2023-04-10T02:15:30.797Z,7.45
2023-04-10T02:16:33.516Z,7.42
2023-04-10T02:17:33.057Z,7.45
2023-04-10T02:18:31.206Z,7.44
2023-04-10T02:19:31.384Z,7.38
2023-04-10T02:20:31.614Z,7.42
2023-04-10T02:21:32.958Z,7.31
2023-04-10T02:22:31.971Z,7.24
2023-04-10T02:23:32.154Z,7.19
2023-04-10T02:24:32.347Z,7.12
2023-04-10T02:25:32.522Z,7.17
2023-04-10T02:26:32.708Z,7.22
2023-04-10T02:27:33.461Z,7.29
2023-04-10T02:28:32.994Z,7.42
2023-04-10T02:29:33.983Z,7.40
2023-04-10T02:30:33.384Z,7.44
2023-04-10T02:31:33.582Z,7.42
2023-04-10T02:32:33.839Z,7.47
2023-04-10T02:33:33.909Z,7.49
2023-04-10T02:34:34.093Z,7.62
2023-04-10T02:35:34.298Z,7.58
2023-04-10T02:36:35.962Z,7.77
2023-04-10T02:37:35.498Z,7.87
2023-04-10T02:38:34.852Z,7.84
2023-04-10T02:39:34.985Z,7.79
2023-04-10T02:40:35.137Z,7.72
2023-04-10T02:41:35.967Z,7.66
2023-04-10T02:42:35.457Z,7.72
2023-04-10T02:43:35.610Z,7.62
2023-04-10T02:44:35.757Z,7.85
2023-04-10T02:45:35.907Z,7.92
2023-04-10T02:46:36.099Z,8.00
2023-04-10T02:47:37.025Z,7.89
2023-04-10T02:48:36.442Z,7.89
2023-04-10T02:49:36.648Z,7.82
2023-04-10T02:50:36.813Z,7.82
2023-04-10T02:51:37.017Z,8.00
2023-04-10T02:52:37.217Z,8.15
2023-04-10T02:53:37.973Z,8.20
2023-04-10T02:54:37.488Z,8.08
2023-04-10T02:55:37.679Z,8.20
2023-04-10T02:56:37.875Z,8.28
2023-04-10T02:57:39.473Z,8.20
2023-04-10T02:58:38.217Z,8.08
2023-04-10T02:59:38.392Z,8.12
2023-04-10T03:00:39.469Z,8.14
2023-04-10T03:01:38.801Z,8.14
2023-04-10T03:02:39.224Z,8.25
2023-04-10T03:03:39.253Z,8.17
2023-04-10T03:04:39.442Z,8.10
2023-04-10T03:05:40.967Z,8.12
2023-04-10T03:06:40.489Z,8.11
2023-04-10T03:07:40.467Z,8.04
2023-04-10T03:08:40.973Z,8.02
2023-04-10T03:09:41.008Z,8.04
2023-04-10T03:10:40.373Z,7.82
2023-04-10T03:11:40.548Z,7.74
2023-04-10T03:12:40.689Z,7.71
2023-04-10T03:13:40.869Z,7.56
2023-04-10T03:14:41.020Z,7.62
2023-04-10T03:15:41.166Z,7.47
2023-04-10T03:16:41.346Z,7.38
2023-04-10T03:17:42.551Z,7.32
2023-04-10T03:18:42.976Z,7.24
2023-04-10T03:19:41.975Z,7.08
2023-04-10T03:20:43.774Z,7.15
2023-04-10T03:21:43.019Z,7.04
2023-04-10T03:22:42.512Z,6.97
2023-04-10T03:23:43.478Z,6.99
2023-04-10T03:24:42.846Z,6.91
2023-04-10T03:25:42.939Z,6.91
2023-04-10T03:26:44.193Z,7.09
2023-04-10T03:27:43.397Z,7.15
2023-04-10T03:28:43.539Z,7.13
2023-04-10T03:29:43.702Z,7.23
2023-04-10T03:30:44.979Z,7.16
2023-04-10T03:31:44.109Z,7.13
2023-04-10T03:32:44.292Z,7.04
2023-04-10T03:33:44.587Z,6.91
2023-04-10T03:34:44.673Z,6.95
2023-04-10T03:35:44.847Z,6.80
2023-04-10T03:36:45.045Z,6.83
2023-04-10T03:37:45.181Z,6.91
2023-04-10T03:38:45.970Z,6.94
2023-04-10T03:39:45.491Z,6.86
2023-04-10T03:40:45.659Z,6.89
2023-04-10T03:41:46.472Z,6.95
2023-04-10T03:42:45.945Z,7.07
2023-04-10T03:43:46.130Z,7.12
2023-04-10T03:44:46.309Z,7.13
2023-04-10T03:45:46.440Z,7.27
2023-04-10T03:46:46.687Z,7.29
2023-04-10T03:47:46.801Z,7.29
2023-04-10T03:48:46.994Z,7.24
2023-04-10T03:49:47.166Z,7.24
2023-04-10T03:50:47.309Z,7.26
2023-04-10T03:51:47.487Z,7.35
2023-04-10T03:52:47.639Z,7.31
2023-04-10T03:53:47.804Z,7.41
2023-04-10T03:54:48.975Z,7.49
2023-04-10T03:55:48.206Z,7.47
2023-04-10T03:56:49.480Z,7.58
2023-04-10T03:57:49.475Z,7.72
2023-04-10T03:58:48.737Z,7.84
2023-04-10T03:59:48.894Z,7.89
2023-04-10T04:00:50.020Z,7.92
2023-04-10T04:01:49.310Z,7.93
2023-04-10T04:02:49.608Z,8.03
2023-04-10T04:03:49.814Z,8.00
2023-04-10T04:04:50.618Z,8.07
2023-04-10T04:05:50.074Z,8.14
2023-04-10T04:06:50.238Z,8.20
2023-04-10T04:07:50.432Z,8.18
2023-04-10T04:08:50.628Z,8.20
2023-04-10T04:09:51.496Z,8.14
2023-04-10T04:10:51.044Z,8.25
2023-04-10T04:11:51.215Z,8.33
2023-04-10T04:12:51.982Z,8.29
2023-04-10T04:13:51.864Z,8.35
2023-04-10T04:14:52.479Z,8.21
2023-04-10T04:15:52.009Z,8.42
2023-04-10T04:16:52.178Z,8.36
2023-04-10T04:17:52.391Z,8.37
2023-04-10T04:18:53.483Z,8.47
2023-04-10T04:19:52.747Z,8.51
2023-04-10T04:20:52.916Z,8.60
2023-04-10T04:21:53.085Z,8.63
2023-04-10T04:22:53.273Z,8.51
2023-04-10T04:23:55.490Z,8.62
2023-04-10T04:24:53.584Z,8.53
2023-04-10T04:25:53.770Z,8.58
2023-04-10T04:26:53.941Z,8.58
2023-04-10T04:27:54.139Z,8.48
2023-04-10T04:28:54.973Z,8.60
2023-04-10T04:29:54.551Z,8.54
2023-04-10T04:30:55.534Z,8.58
2023-04-10T04:31:54.944Z,8.48
2023-04-10T04:32:56.076Z,8.50
2023-04-10T04:33:56.056Z,8.48
2023-04-10T04:34:56.487Z,8.53
2023-04-10T04:35:55.757Z,8.53
2023-04-10T04:36:55.922Z,8.51
2023-04-10T04:37:56.076Z,8.63
2023-04-10T04:38:56.207Z,8.55
2023-04-10T04:39:57.502Z,8.54
2023-04-10T04:40:56.519Z,8.51
2023-04-10T04:41:56.675Z,8.51
2023-04-10T04:42:57.488Z,8.48
2023-04-10T04:43:56.980Z,8.44
2023-04-10T04:44:57.143Z,8.45
2023-04-10T04:45:58.559Z,8.45
2023-04-10T04:46:57.421Z,8.50
2023-04-10T04:47:57.701Z,8.45
2023-04-10T04:48:57.760Z,8.44
2023-04-10T04:49:57.970Z,8.45
2023-04-10T04:50:58.116Z,8.54
2023-04-10T04:51:58.267Z,8.57
2023-04-10T04:52:58.449Z,8.62
2023-04-10T04:53:58.596Z,8.63
2023-04-10T04:54:58.767Z,8.63
2023-04-10T04:55:58.919Z,8.53
2023-04-10T04:56:59.057Z,8.63
2023-04-10T04:57:59.237Z,8.58
2023-04-10T04:59:00.056Z,8.69
2023-04-10T05:00:00.491Z,8.63
2023-04-10T05:01:00.580Z,8.62
2023-04-10T05:02:01.719Z,8.51
2023-04-10T05:03:01.106Z,8.57
2023-04-10T05:04:01.109Z,8.48
2023-04-10T05:05:01.366Z,8.55
2023-04-10T05:06:00.756Z,8.60
2023-04-10T05:07:01.507Z,8.62
2023-04-10T05:08:02.035Z,8.45
2023-04-10T05:09:03.515Z,8.42
2023-04-10T05:10:01.478Z,8.51
2023-04-10T05:11:01.636Z,8.35
2023-04-10T05:12:01.773Z,8.37
2023-04-10T05:13:02.498Z,8.44
2023-04-10T05:14:02.118Z,8.35
2023-04-10T05:15:02.991Z,8.37
2023-04-10T05:16:02.530Z,8.35
2023-04-10T05:17:03.854Z,8.26
2023-04-10T05:18:03.970Z,8.35
2023-04-10T05:19:04.491Z,8.25
2023-04-10T05:20:03.340Z,8.37
2023-04-10T05:21:03.489Z,8.32
2023-04-10T05:22:03.630Z,8.29
2023-04-10T05:23:04.508Z,8.39
2023-04-10T05:24:05.016Z,8.36
2023-04-10T05:25:04.996Z,8.51
2023-04-10T05:26:04.983Z,8.54
2023-04-10T05:27:05.504Z,8.63
2023-04-10T05:28:04.630Z,8.57
2023-04-10T05:29:05.501Z,8.68
2023-04-10T05:30:06.009Z,8.84
2023-04-10T05:31:06.027Z,8.76
2023-04-10T05:32:05.443Z,8.62
2023-04-10T05:33:06.537Z,8.84
2023-04-10T05:34:06.532Z,8.73
2023-04-10T05:35:06.002Z,8.84
2023-04-10T05:36:06.239Z,8.90
2023-04-10T05:37:07.507Z,8.83
2023-04-10T05:38:06.523Z,8.90
2023-04-10T05:39:09.005Z,8.93
2023-04-10T05:40:06.887Z,9.04
2023-04-10T05:41:07.106Z,9.13
2023-04-10T05:42:09.004Z,9.15
2023-04-10T05:43:08.028Z,9.24
2023-04-10T05:44:07.680Z,9.21
2023-04-10T05:45:07.857Z,9.34
2023-04-10T05:46:08.093Z,9.34
2023-04-10T05:47:08.291Z,9.35
2023-04-10T05:48:09.511Z,9.46
2023-04-10T05:49:09.373Z,9.57
2023-04-10T05:50:08.801Z,9.53
2023-04-10T05:51:08.983Z,9.71
2023-04-10T05:52:09.198Z,9.71
2023-04-10T05:53:10.056Z,9.89
2023-04-10T05:54:09.592Z,9.96
2023-04-10T05:55:09.772Z,9.79
2023-04-10T05:56:10.695Z,9.81
2023-04-10T05:57:10.123Z,9.76
2023-04-10T05:58:11.049Z,9.73
2023-04-10T05:59:11.000Z,9.70
2023-04-10T06:00:10.665Z,9.61
2023-04-10T06:01:10.851Z,9.63
2023-04-10T06:02:11.043Z,9.71
2023-04-10T06:03:12.056Z,9.63
2023-04-10T06:04:12.129Z,9.70
2023-04-10T06:05:11.508Z,9.66
2023-04-10T06:06:11.709Z,9.52
2023-04-10T06:07:13.007Z,9.68
2023-04-10T06:08:12.566Z,9.66
2023-04-10T06:09:12.359Z,9.61
2023-04-10T06:10:12.538Z,9.61
2023-04-10T06:11:12.712Z,9.75
2023-04-10T06:12:13.504Z,9.71
2023-04-10T06:13:14.896Z,9.71
2023-04-10T06:14:13.329Z,9.68
2023-04-10T06:15:13.537Z,9.73
2023-04-10T06:16:14.523Z,9.75
2023-04-10T06:17:13.960Z,9.70
2023-04-10T06:18:15.067Z,9.81
2023-04-10T06:19:14.558Z,9.82
2023-04-10T06:20:15.375Z,9.85
2023-04-10T06:21:14.658Z,9.81
2023-04-10T06:22:15.003Z,9.81
2023-04-10T06:23:14.968Z,9.82
2023-04-10T06:24:15.170Z,9.81
2023-04-10T06:25:15.379Z,9.86
2023-04-10T06:26:15.547Z,10.00
2023-04-10T06:27:16.508Z,10.21
2023-04-10T06:28:15.913Z,10.14
2023-04-10T06:29:16.098Z,10.19
2023-04-10T06:30:16.272Z,10.25
2023-04-10T06:31:16.493Z,10.37
2023-04-10T06:32:16.707Z,10.43
2023-04-10T06:33:16.853Z,10.46
2023-04-10T06:34:17.033Z,10.60
2023-04-10T06:35:17.881Z,10.59
2023-04-10T06:36:17.449Z,10.77
2023-04-10T06:37:17.635Z,10.95
2023-04-10T06:38:17.768Z,10.92
2023-04-10T06:39:20.018Z,11.21
2023-04-10T06:40:18.150Z,11.47
2023-04-10T06:41:19.112Z,11.65
2023-04-10T06:42:18.553Z,11.86
2023-04-10T06:43:19.566Z,12.33
2023-04-10T06:44:18.817Z,12.66
2023-04-10T06:45:18.985Z,12.70
2023-04-10T06:46:20.900Z,12.78
2023-04-10T06:47:19.318Z,12.88
2023-04-10T06:48:19.514Z,13.46
2023-04-10T06:49:19.671Z,13.99
2023-04-10T06:50:19.812Z,14.31
2023-04-10T06:51:20.003Z,13.91
2023-04-10T06:52:20.586Z,14.17
2023-04-10T06:53:20.388Z,14.64
2023-04-10T06:54:20.559Z,14.21
2023-04-10T06:55:21.584Z,14.02
2023-04-10T06:56:20.995Z,14.32
2023-04-10T06:57:21.299Z,14.21
2023-04-10T06:58:21.424Z,13.95
2023-04-10T06:59:21.597Z,13.91
2023-04-10T07:00:21.773Z,13.40
2023-04-10T07:01:22.636Z,12.99
2023-04-10T07:02:22.361Z,13.02
2023-04-10T07:03:22.433Z,13.51
2023-04-10T07:04:22.638Z,13.96
2023-04-10T07:05:23.904Z,14.07
2023-04-10T07:06:22.959Z,14.12
2023-04-10T07:07:24.028Z,14.24
2023-04-10T07:08:23.312Z,14.17
2023-04-10T07:09:23.533Z,14.35
2023-04-10T07:10:24.478Z,14.32
2023-04-10T07:11:23.870Z,14.38
2023-04-10T07:12:24.036Z,14.44
2023-04-10T07:13:25.033Z,15.09
2023-04-10T07:14:25.074Z,15.36
2023-04-10T07:15:24.615Z,15.21
2023-04-10T07:16:24.848Z,14.94
2023-04-10T07:17:25.074Z,15.49
2023-04-10T07:18:27.085Z,15.72
2023-04-10T07:19:25.451Z,15.61
2023-04-10T07:20:25.624Z,15.54
2023-04-10T07:21:25.760Z,15.15
2023-04-10T07:22:25.951Z,15.21
2023-04-10T07:23:27.077Z,15.30
2023-04-10T07:24:26.329Z,15.33
2023-04-10T07:25:27.079Z,15.43
2023-04-10T07:26:26.682Z,15.41
2023-04-10T07:27:26.813Z,15.36
2023-04-10T07:28:26.955Z,15.21
2023-04-10T07:29:27.133Z,15.19
2023-04-10T07:30:27.295Z,15.56
2023-04-10T07:31:28.213Z,16.00
2023-04-10T07:32:27.871Z,16.00
2023-04-10T07:33:28.942Z,16.01
2023-04-10T07:34:28.049Z,15.11
2023-04-10T07:35:28.259Z,14.53
2023-04-10T07:36:29.039Z,14.14
2023-04-10T07:37:28.548Z,13.76
2023-04-10T07:38:29.540Z,13.77
2023-04-10T07:39:28.941Z,13.71
2023-04-10T07:40:29.149Z,13.76
2023-04-10T07:41:30.420Z,13.83
2023-04-10T07:42:29.585Z,13.84
2023-04-10T07:43:30.580Z,14.12
2023-04-10T07:44:31.540Z,14.28
2023-04-10T07:45:30.252Z,14.46
2023-04-10T07:46:31.047Z,14.69
2023-04-10T07:47:30.528Z,15.03
2023-04-10T07:48:30.577Z,14.91
2023-04-10T07:49:31.549Z,14.99
2023-04-10T07:50:30.965Z,14.86
2023-04-10T07:51:31.153Z,14.64
2023-04-10T07:52:31.376Z,14.43
2023-04-10T07:53:33.052Z,14.31
2023-04-10T07:54:31.806Z,14.19
2023-04-10T07:55:32.017Z,14.42
2023-04-10T07:56:32.190Z,14.57
2023-04-10T07:57:32.505Z,14.67
2023-04-10T07:58:32.605Z,14.67
2023-04-10T07:59:32.806Z,14.87
2023-04-10T08:00:33.565Z,15.27
2023-04-10T08:01:33.230Z,15.92
2023-04-10T08:02:33.505Z,16.07
2023-04-10T08:03:34.593Z,16.00
2023-04-10T08:04:34.673Z,16.03
2023-04-10T08:05:33.901Z,15.96
2023-04-10T08:06:34.927Z,15.92
2023-04-10T08:07:34.245Z,16.11
2023-04-10T08:08:35.051Z,15.76
2023-04-10T08:09:35.554Z,15.61
2023-04-10T08:10:34.695Z,15.41
2023-04-10T08:11:37.300Z,15.06
2023-04-10T08:12:35.041Z,15.02
2023-04-10T08:13:35.243Z,15.31
2023-04-10T08:14:35.632Z,15.41
2023-04-10T08:15:35.555Z,15.41
2023-04-10T08:16:35.743Z,15.42
2023-04-10T08:17:35.931Z,15.24
2023-04-10T08:18:36.109Z,15.38
2023-04-10T08:19:36.399Z,15.70
2023-04-10T08:20:36.439Z,16.22
2023-04-10T08:21:36.606Z,16.88
2023-04-10T08:22:37.553Z,16.73
2023-04-10T08:23:36.968Z,16.27
2023-04-10T08:24:37.169Z,15.81
2023-04-10T08:25:38.057Z,15.79
2023-04-10T08:26:38.091Z,15.99
2023-04-10T08:27:38.560Z,15.92
2023-04-10T08:28:37.847Z,15.59
2023-04-10T08:29:38.001Z,15.43
2023-04-10T08:30:38.244Z,15.36
2023-04-10T08:31:38.310Z,15.30
2023-04-10T08:32:38.478Z,15.39
2023-04-10T08:33:39.561Z,15.72
2023-04-10T08:34:39.584Z,15.97
2023-04-10T08:35:39.606Z,16.12
2023-04-10T08:36:39.131Z,16.11
2023-04-10T08:37:40.277Z,16.33
2023-04-10T08:38:39.624Z,16.15
2023-04-10T08:39:39.674Z,16.26
2023-04-10T08:40:39.828Z,15.85
2023-04-10T08:41:39.967Z,15.66
2023-04-10T08:42:40.137Z,15.23
2023-04-10T08:43:40.317Z,14.84
2023-04-10T08:44:41.100Z,14.61
2023-04-10T08:45:41.603Z,14.49
2023-04-10T08:46:40.805Z,14.35
2023-04-10T08:47:40.964Z,14.39
2023-04-10T08:48:41.018Z,14.69
2023-04-10T08:49:41.174Z,14.50
2023-04-10T08:50:42.109Z,14.64
2023-04-10T08:51:42.104Z,14.68
2023-04-10T08:52:42.566Z,14.88
2023-04-10T08:53:41.829Z,14.99
2023-04-10T08:54:42.003Z,15.21
2023-04-10T08:55:42.162Z,15.20
2023-04-10T08:56:42.321Z,15.36
2023-04-10T08:57:47.850Z,15.56
2023-04-10T08:58:44.697Z,15.99
2023-04-10T08:59:42.796Z,16.16
2023-04-10T09:00:42.954Z,16.14
2023-04-10T09:01:43.228Z,16.04
2023-04-10T09:02:43.410Z,15.93
2023-04-10T09:03:43.786Z,16.04
2023-04-10T09:04:43.743Z,16.41
2023-04-10T09:05:43.815Z,16.59
2023-04-10T09:06:44.973Z,16.73
2023-04-10T09:07:44.105Z,17.03
2023-04-10T09:08:45.937Z,16.85
2023-04-10T09:09:44.446Z,16.81
2023-04-10T09:10:44.630Z,16.56
2023-04-10T09:11:44.791Z,16.27
2023-04-10T09:12:46.068Z,16.31
2023-04-10T09:13:46.072Z,16.53
2023-04-10T09:14:45.422Z,16.35
2023-04-10T09:15:45.597Z,16.27
2023-04-10T09:16:45.781Z,16.48
2023-04-10T09:17:46.650Z,16.63
2023-04-10T09:18:46.175Z,16.53
2023-04-10T09:19:46.365Z,16.62
2023-04-10T09:20:46.532Z,16.81
2023-04-10T09:21:48.572Z,16.90
2023-04-10T09:22:47.613Z,16.50
2023-04-10T09:23:46.989Z,16.35
2023-04-10T09:24:48.078Z,16.42
2023-04-10T09:25:49.326Z,16.01
2023-04-10T09:26:47.575Z,15.89
2023-04-10T09:27:47.744Z,15.97
2023-04-10T09:28:48.637Z,16.15
2023-04-10T09:29:48.160Z,16.16
2023-04-10T09:30:48.349Z,16.12
2023-04-10T09:31:48.636Z,16.00
2023-04-10T09:32:48.743Z,16.07
2023-04-10T09:33:49.594Z,16.33
2023-04-10T09:34:50.575Z,16.67
2023-04-10T09:35:49.194Z,16.90
2023-04-10T09:36:49.348Z,16.93
2023-04-10T09:37:49.487Z,16.92
2023-04-10T09:38:49.658Z,16.68
2023-04-10T09:39:49.936Z,16.71
2023-04-10T09:40:52.347Z,16.90
2023-04-10T09:41:50.198Z,17.13
2023-04-10T09:42:50.365Z,17.20
2023-04-10T09:43:50.539Z,17.28
2023-04-10T09:44:50.713Z,16.75
2023-04-10T09:45:51.640Z,16.63
2023-04-10T09:46:51.680Z,16.65
2023-04-10T09:47:51.267Z,16.98
2023-04-10T09:48:51.426Z,17.10
2023-04-10T09:49:52.130Z,16.92
2023-04-10T09:50:51.785Z,16.86
2023-04-10T09:51:52.581Z,16.73
2023-04-10T09:52:53.080Z,16.50
2023-04-10T09:53:53.341Z,16.40
2023-04-10T09:54:53.128Z,16.49
2023-04-10T09:55:53.621Z,16.63
2023-04-10T09:56:55.087Z,16.80
2023-04-10T09:57:54.081Z,16.83
2023-04-10T09:58:53.545Z,16.80
2023-04-10T09:59:53.380Z,16.88
2023-04-10T10:00:53.521Z,16.62
2023-04-10T10:01:53.709Z,16.62
2023-04-10T10:02:54.038Z,16.83
2023-04-10T10:03:54.050Z,16.62
2023-04-10T10:04:54.152Z,16.42
2023-04-10T10:05:54.344Z,16.45
2023-04-10T10:06:56.956Z,16.42
2023-04-10T10:07:54.684Z,16.68
2023-04-10T10:08:54.919Z,16.77
2023-04-10T10:09:55.038Z,16.78
2023-04-10T10:10:55.179Z,16.78
2023-04-10T10:11:56.092Z,16.77
2023-04-10T10:12:55.457Z,16.80
2023-04-10T10:13:55.601Z,16.88
2023-04-10T10:14:55.787Z,16.56
2023-04-10T10:15:56.001Z,16.45
2023-04-10T10:16:57.113Z,16.58
2023-04-10T10:17:56.447Z,16.71
2023-04-10T10:18:56.832Z,16.78
2023-04-10T10:19:56.770Z,16.75
2023-04-10T10:20:56.940Z,16.80
2023-04-10T10:21:57.964Z,16.67
2023-04-10T10:22:57.217Z,16.63
2023-04-10T10:23:59.099Z,16.35
2023-04-10T10:24:57.632Z,16.31
2023-04-10T10:25:57.828Z,16.30
2023-04-10T10:26:58.024Z,16.53
2023-04-10T10:27:58.184Z,16.78
2023-04-10T10:29:00.119Z,17.10
2023-04-10T10:29:59.748Z,16.98
2023-04-10T10:30:58.737Z,16.96
2023-04-10T10:31:59.009Z,17.08
2023-04-10T10:32:59.802Z,17.41
2023-04-10T10:33:59.315Z,17.38
2023-04-10T10:34:59.485Z,17.63
2023-04-10T10:36:00.183Z,17.51
2023-04-10T10:37:01.603Z,17.32
2023-04-10T10:38:00.023Z,17.00
2023-04-10T10:39:00.188Z,16.71
2023-04-10T10:40:01.152Z,16.68
2023-04-10T10:41:00.539Z,16.70
2023-04-10T10:42:00.715Z,16.78
2023-04-10T10:43:01.166Z,16.81
2023-04-10T10:44:01.061Z,16.77
2023-04-10T10:45:02.148Z,16.63
2023-04-10T10:46:02.516Z,16.77
2023-04-10T10:47:01.549Z,16.81
2023-04-10T10:48:01.848Z,16.96
2023-04-10T10:49:01.931Z,17.08
2023-04-10T10:50:02.124Z,17.32
2023-04-10T10:51:02.391Z,17.47
2023-04-10T10:52:02.480Z,17.57
2023-04-10T10:53:02.754Z,17.41
2023-04-10T10:54:02.833Z,17.28
2023-04-10T10:55:03.024Z,16.96
2023-04-10T10:56:03.213Z,16.90
2023-04-10T10:57:03.395Z,16.90
2023-04-10T10:58:04.111Z,16.88
2023-04-10T10:59:03.760Z,16.71
2023-04-10T11:00:03.942Z,16.56
2023-04-10T11:01:05.665Z,16.62
2023-04-10T11:02:04.505Z,16.68
2023-04-10T11:03:04.639Z,16.75
2023-04-10T11:04:04.935Z,16.78
2023-04-10T11:05:05.021Z,16.67
2023-04-10T11:06:05.214Z,16.68
2023-04-10T11:07:05.437Z,16.55
2023-04-10T11:08:05.638Z,16.63
2023-04-10T11:09:06.630Z,16.68
2023-04-10T11:10:06.056Z,16.70
2023-04-10T11:11:07.016Z,16.80
2023-04-10T11:12:07.125Z,16.85
2023-04-10T11:13:07.615Z,16.78
2023-04-10T11:14:07.623Z,16.85
2023-04-10T11:15:07.021Z,16.99
2023-04-10T11:16:09.146Z,17.08
2023-04-10T11:17:07.450Z,17.17
2023-04-10T11:18:07.561Z,17.15
2023-04-10T11:19:14.187Z,17.11
2023-04-10T11:20:09.966Z,17.13
2023-04-10T11:21:08.624Z,17.26
2023-04-10T11:22:08.612Z,17.29
2023-04-10T11:23:09.236Z,17.08
2023-04-10T11:24:08.615Z,17.06
2023-04-10T11:25:08.792Z,16.78
2023-04-10T11:26:09.628Z,16.60
2023-04-10T11:27:09.171Z,16.70
2023-04-10T11:28:10.130Z,16.71
2023-04-10T11:29:09.518Z,16.71
2023-04-10T11:30:09.700Z,16.74
2023-04-10T11:31:11.628Z,16.63
2023-04-10T11:32:10.300Z,16.62
2023-04-10T11:33:10.339Z,16.83
2023-04-10T11:34:10.537Z,16.73
2023-04-10T11:35:10.762Z,16.81
2023-04-10T11:36:10.928Z,16.85
2023-04-10T11:37:11.107Z,17.03
2023-04-10T11:38:11.275Z,17.13
2023-04-10T11:39:11.449Z,17.32
2023-04-10T11:40:12.638Z,17.47
2023-04-10T11:41:11.783Z,17.64
2023-04-10T11:42:12.626Z,17.71
2023-04-10T11:43:12.155Z,17.54
2023-04-10T11:44:13.166Z,17.48
2023-04-10T11:45:12.586Z,17.35
2023-04-10T11:46:12.837Z,17.46
2023-04-10T11:47:12.906Z,17.48
2023-04-10T11:48:13.062Z,17.74
2023-04-10T11:49:13.227Z,17.66
2023-04-10T11:50:13.463Z,17.70
2023-04-10T11:51:13.550Z,17.54
2023-04-10T11:52:13.716Z,17.35
2023-04-10T11:53:13.886Z,17.40
2023-04-10T11:54:14.078Z,17.46
2023-04-10T11:55:14.253Z,17.62
2023-04-10T11:56:14.427Z,17.55
2023-04-10T11:57:14.660Z,17.48
2023-04-10T11:58:14.844Z,17.46
2023-04-10T11:59:15.023Z,17.63
2023-04-10T12:00:15.178Z,17.76
2023-04-10T12:01:15.356Z,17.74
2023-04-10T12:02:15.797Z,17.79
2023-04-10T12:03:15.813Z,17.73
2023-04-10T12:04:15.920Z,17.89
2023-04-10T12:05:16.065Z,18.06
2023-04-10T12:06:17.633Z,18.02
2023-04-10T12:07:16.257Z,18.07
2023-04-10T12:08:16.451Z,17.95
2023-04-10T12:09:16.612Z,17.81
2023-04-10T12:10:16.771Z,18.00
2023-04-10T12:11:17.630Z,18.04
2023-04-10T12:12:17.681Z,18.07
2023-04-10T12:13:17.681Z,18.03
2023-04-10T12:14:17.582Z,18.02
2023-04-10T12:15:17.740Z,17.97
2023-04-10T12:16:17.996Z,17.91
2023-04-10T12:17:18.127Z,17.76
2023-04-10T12:18:18.336Z,17.40
2023-04-10T12:19:18.510Z,17.20
2023-04-10T12:20:19.677Z,17.15
2023-04-10T12:21:20.004Z,17.25
2023-04-10T12:22:19.644Z,17.41
2023-04-10T12:23:19.315Z,17.50
2023-04-10T12:24:20.144Z,17.64
2023-04-10T12:25:19.707Z,17.41
2023-04-10T12:26:20.570Z,17.53
2023-04-10T12:27:20.098Z,17.66
2023-04-10T12:28:20.301Z,17.78
2023-04-10T12:29:20.500Z,17.71
2023-04-10T12:30:20.671Z,17.71
2023-04-10T12:31:21.712Z,17.89
2023-04-10T12:32:21.771Z,17.76
2023-04-10T12:33:21.247Z,17.51
2023-04-10T12:34:21.423Z,17.57
2023-04-10T12:35:21.618Z,17.62
2023-04-10T12:36:21.858Z,17.76
2023-04-10T12:37:21.983Z,17.63
2023-04-10T12:38:22.176Z,17.88
2023-04-10T12:39:22.345Z,17.87
2023-04-10T12:40:22.545Z,17.95
2023-04-10T12:41:23.651Z,17.82
2023-04-10T12:42:22.988Z,17.70
2023-04-10T12:43:23.078Z,17.59
2023-04-10T12:44:23.705Z,17.51
2023-04-10T12:45:23.499Z,17.53
2023-04-10T12:46:23.741Z,17.47
2023-04-10T12:47:23.915Z,17.38
2023-04-10T12:48:24.046Z,17.40
2023-04-10T12:49:24.233Z,17.36
2023-04-10T12:50:24.400Z,17.36
2023-04-10T12:51:24.611Z,17.44
2023-04-10T12:52:24.762Z,17.43
2023-04-10T12:53:25.919Z,17.46
2023-04-10T12:54:25.110Z,17.51
2023-04-10T12:55:25.271Z,17.66
2023-04-10T12:56:25.460Z,17.73
2023-04-10T12:57:25.606Z,17.71
2023-04-10T12:58:26.528Z,17.67
2023-04-10T12:59:25.958Z,17.84
2023-04-10T13:00:26.680Z,17.84
2023-04-10T13:01:26.350Z,17.78
2023-04-10T13:02:27.474Z,17.87
2023-04-10T13:03:26.750Z,17.89
2023-04-10T13:04:27.099Z,17.99
2023-04-10T13:05:27.069Z,18.18
2023-04-10T13:06:27.226Z,18.37
2023-04-10T13:07:28.159Z,18.61